Terminal Aerodrome Forecast
Issued by NWS Columbia, SC

Home | Current Version | Previous Version | Text Only | Print | Product List | Glossary On
Versions: 1 2 3 4 5 6 7 8 9 10 11 12 13 14 15 16 17 18 19 20 21 22 23 24 25 26 27 28 29 30 31 32 33 34 35 36 37 38 39 40 41 42 43
000
FTAK31 PAJN 162331
TAFAGS
TAF
PAGS 162331Z 1700/1724 14006KT P6SM -SHRA SCT012 OVC025
      TEMPO 1700/1701 3SM SHRA BR BKN012
     FM170100 21008G16KT P6SM -SHRA BKN025 OVC035
     FM170600 15007KT P6SM -SHRA SCT025 OVC035
     FM171800 15008KT P6SM -SHRA BKN025 OVC035
      AMD LTD TO CLD VIS AND WIND=

USA.gov is the U.S. government's official web portal to all federal, state and local government web resources and services.